sensor_id;sensor_type;location;lat;lon;timestamp;temperature;humidity
10149;DHT22;5115;50.920;6.376;2023-06-14T00:00:18;22.00;91.80
10149;DHT22;5115;50.920;6.376;2023-06-14T00:02:43;22.00;92.00
10149;DHT22;5115;50.920;6.376;2023-06-14T00:05:09;22.00;92.50
10149;DHT22;5115;50.920;6.376;2023-06-14T00:07:39;21.90;92.30
10149;DHT22;5115;50.920;6.376;2023-06-14T00:10:08;21.80;92.70
10149;DHT22;5115;50.920;6.376;2023-06-14T00:12:34;21.80;93.20
10149;DHT22;5115;50.920;6.376;2023-06-14T00:15:00;21.70;92.90
10149;DHT22;5115;50.920;6.376;2023-06-14T00:17:29;21.70;92.90
10149;DHT22;5115;50.920;6.376;2023-06-14T00:19:58;21.70;93.50
10149;DHT22;5115;50.920;6.376;2023-06-14T00:22:24;21.60;93.30
10149;DHT22;5115;50.920;6.376;2023-06-14T00:24:51;21.60;93.60
10149;DHT22;5115;50.920;6.376;2023-06-14T00:27:16;21.60;93.50
10149;DHT22;5115;50.920;6.376;2023-06-14T00:29:42;21.60;94.00
10149;DHT22;5115;50.920;6.376;2023-06-14T00:32:08;21.60;94.20
10149;DHT22;5115;50.920;6.376;2023-06-14T00:34:34;21.60;94.10
10149;DHT22;5115;50.920;6.376;2023-06-14T00:37:00;21.60;94.10
10149;DHT22;5115;50.920;6.376;2023-06-14T00:39:25;21.50;94.20
10149;DHT22;5115;50.920;6.376;2023-06-14T00:41:51;21.50;94.30
10149;DHT22;5115;50.920;6.376;2023-06-14T00:44:17;21.40;94.20
10149;DHT22;5115;50.920;6.376;2023-06-14T00:46:44;21.30;94.00
10149;DHT22;5115;50.920;6.376;2023-06-14T00:49:12;21.10;94.40
10149;DHT22;5115;50.920;6.376;2023-06-14T00:51:39;21.10;95.40
10149;DHT22;5115;50.920;6.376;2023-06-14T00:54:04;21.10;95.00
10149;DHT22;5115;50.920;6.376;2023-06-14T00:56:30;21.10;95.20
10149;DHT22;5115;50.920;6.376;2023-06-14T00:58:56;21.10;95.20
10149;DHT22;5115;50.920;6.376;2023-06-14T01:01:23;20.90;95.40
10149;DHT22;5115;50.920;6.376;2023-06-14T01:03:49;20.80;95.50
10149;DHT22;5115;50.920;6.376;2023-06-14T01:09:32;20.50;95.90
10149;DHT22;5115;50.920;6.376;2023-06-14T01:12:13;20.60;96.20
10149;DHT22;5115;50.920;6.376;2023-06-14T01:14:41;20.60;96.30
10149;DHT22;5115;50.920;6.376;2023-06-14T01:17:08;20.60;96.40
10149;DHT22;5115;50.920;6.376;2023-06-14T01:19:41;20.40;96.20
10149;DHT22;5115;50.920;6.376;2023-06-14T01:22:08;20.30;96.60
10149;DHT22;5115;50.920;6.376;2023-06-14T01:24:33;20.20;96.40
10149;DHT22;5115;50.920;6.376;2023-06-14T01:27:00;20.00;96.30
10149;DHT22;5115;50.920;6.376;2023-06-14T01:29:28;20.00;96.60
10149;DHT22;5115;50.920;6.376;2023-06-14T01:31:58;19.90;96.60
10149;DHT22;5115;50.920;6.376;2023-06-14T01:34:25;19.80;96.80
10149;DHT22;5115;50.920;6.376;2023-06-14T01:36:52;19.80;96.90
10149;DHT22;5115;50.920;6.376;2023-06-14T01:39:20;19.80;97.30
10149;DHT22;5115;50.920;6.376;2023-06-14T01:41:47;19.90;97.60
10149;DHT22;5115;50.920;6.376;2023-06-14T01:44:16;19.70;97.50
10149;DHT22;5115;50.920;6.376;2023-06-14T01:46:42;19.80;97.30
10149;DHT22;5115;50.920;6.376;2023-06-14T01:49:08;19.70;96.70
10149;DHT22;5115;50.920;6.376;2023-06-14T01:51:34;19.60;96.30
10149;DHT22;5115;50.920;6.376;2023-06-14T01:54:00;19.50;96.60
10149;DHT22;5115;50.920;6.376;2023-06-14T01:56:26;19.50;97.10
10149;DHT22;5115;50.920;6.376;2023-06-14T01:58:52;19.40;96.10
10149;DHT22;5115;50.920;6.376;2023-06-14T02:01:19;19.40;96.20
10149;DHT22;5115;50.920;6.376;2023-06-14T02:03:47;19.30;97.00
10149;DHT22;5115;50.920;6.376;2023-06-14T02:06:13;19.30;96.80
10149;DHT22;5115;50.920;6.376;2023-06-14T02:08:41;19.60;96.90
10149;DHT22;5115;50.920;6.376;2023-06-14T02:11:07;19.00;96.80
10149;DHT22;5115;50.920;6.376;2023-06-14T02:13:32;18.90;96.90
10149;DHT22;5115;50.920;6.376;2023-06-14T02:15:58;18.90;96.90
10149;DHT22;5115;50.920;6.376;2023-06-14T02:18:25;18.90;97.30
10149;DHT22;5115;50.920;6.376;2023-06-14T02:20:50;19.00;97.40
10149;DHT22;5115;50.920;6.376;2023-06-14T02:23:16;19.10;97.60
10149;DHT22;5115;50.920;6.376;2023-06-14T02:25:41;19.10;97.00
10149;DHT22;5115;50.920;6.376;2023-06-14T02:28:09;19.10;97.50
10149;DHT22;5115;50.920;6.376;2023-06-14T02:30:35;19.20;97.50
10149;DHT22;5115;50.920;6.376;2023-06-14T02:33:00;19.20;97.60
10149;DHT22;5115;50.920;6.376;2023-06-14T02:35:26;19.20;97.50
10149;DHT22;5115;50.920;6.376;2023-06-14T02:37:53;19.20;97.50
10149;DHT22;5115;50.920;6.376;2023-06-14T02:40:19;19.20;97.80
10149;DHT22;5115;50.920;6.376;2023-06-14T02:42:45;19.10;97.80
10149;DHT22;5115;50.920;6.376;2023-06-14T02:45:10;18.90;97.60
10149;DHT22;5115;50.920;6.376;2023-06-14T02:47:36;18.80;97.70
10149;DHT22;5115;50.920;6.376;2023-06-14T02:50:03;18.70;97.90
10149;DHT22;5115;50.920;6.376;2023-06-14T02:52:29;18.50;98.40
10149;DHT22;5115;50.920;6.376;2023-06-14T02:54:54;18.50;98.30
10149;DHT22;5115;50.920;6.376;2023-06-14T02:57:21;18.40;98.80
10149;DHT22;5115;50.920;6.376;2023-06-14T02:59:47;18.40;98.80
10149;DHT22;5115;50.920;6.376;2023-06-14T03:02:13;18.40;99.00
10149;DHT22;5115;50.920;6.376;2023-06-14T03:04:38;18.30;98.80
10149;DHT22;5115;50.920;6.376;2023-06-14T03:07:05;18.20;99.10
10149;DHT22;5115;50.920;6.376;2023-06-14T03:09:38;18.20;99.10
10149;DHT22;5115;50.920;6.376;2023-06-14T03:12:05;18.10;99.30
10149;DHT22;5115;50.920;6.376;2023-06-14T03:14:32;18.20;99.80
10149;DHT22;5115;50.920;6.376;2023-06-14T03:16:58;18.30;99.80
10149;DHT22;5115;50.920;6.376;2023-06-14T03:19:24;18.30;99.80
10149;DHT22;5115;50.920;6.376;2023-06-14T03:21:51;18.30;99.70
10149;DHT22;5115;50.920;6.376;2023-06-14T03:24:17;18.30;99.90
10149;DHT22;5115;50.920;6.376;2023-06-14T03:26:43;18.20;99.90
10149;DHT22;5115;50.920;6.376;2023-06-14T03:29:08;18.30;99.90
10149;DHT22;5115;50.920;6.376;2023-06-14T03:31:41;18.10;99.90
10149;DHT22;5115;50.920;6.376;2023-06-14T03:34:21;18.00;99.90
10149;DHT22;5115;50.920;6.376;2023-06-14T03:36:46;18.10;99.90
10149;DHT22;5115;50.920;6.376;2023-06-14T03:39:12;18.20;99.90
10149;DHT22;5115;50.920;6.376;2023-06-14T03:41:37;18.20;99.90
10149;DHT22;5115;50.920;6.376;2023-06-14T03:44:03;18.20;99.90
10149;DHT22;5115;50.920;6.376;2023-06-14T03:46:29;18.20;99.90
10149;DHT22;5115;50.920;6.376;2023-06-14T03:48:54;18.20;99.90
10149;DHT22;5115;50.920;6.376;2023-06-14T03:51:20;18.20;99.90
10149;DHT22;5115;50.920;6.376;2023-06-14T03:53:45;18.20;99.90
10149;DHT22;5115;50.920;6.376;2023-06-14T03:56:11;18.00;99.90
10149;DHT22;5115;50.920;6.376;2023-06-14T03:58:37;17.80;99.90
10149;DHT22;5115;50.920;6.376;2023-06-14T04:01:02;17.90;99.90
10149;DHT22;5115;50.920;6.376;2023-06-14T04:03:28;17.90;99.90
10149;DHT22;5115;50.920;6.376;2023-06-14T04:05:55;18.00;99.90
10149;DHT22;5115;50.920;6.376;2023-06-14T04:08:22;17.90;99.90
10149;DHT22;5115;50.920;6.376;2023-06-14T04:10:50;18.00;99.90
10149;DHT22;5115;50.920;6.376;2023-06-14T04:13:15;18.10;99.90
10149;DHT22;5115;50.920;6.376;2023-06-14T04:15:41;18.10;99.90
10149;DHT22;5115;50.920;6.376;2023-06-14T04:18:12;18.30;99.90
10149;DHT22;5115;50.920;6.376;2023-06-14T04:20:38;18.40;99.90
10149;DHT22;5115;50.920;6.376;2023-06-14T04:23:13;18.50;99.90
10149;DHT22;5115;50.920;6.376;2023-06-14T04:25:39;18.70;99.90
10149;DHT22;5115;50.920;6.376;2023-06-14T04:28:05;18.60;99.90
10149;DHT22;5115;50.920;6.376;2023-06-14T04:30:34;18.60;99.90
10149;DHT22;5115;50.920;6.376;2023-06-14T04:33:00;18.50;99.90
10149;DHT22;5115;50.920;6.376;2023-06-14T04:35:26;18.70;99.90
10149;DHT22;5115;50.920;6.376;2023-06-14T04:37:54;18.90;99.90
10149;DHT22;5115;50.920;6.376;2023-06-14T04:40:20;19.10;99.90
10149;DHT22;5115;50.920;6.376;2023-06-14T04:42:45;19.20;99.90
10149;DHT22;5115;50.920;6.376;2023-06-14T04:45:11;19.30;99.90
10149;DHT22;5115;50.920;6.376;2023-06-14T04:47:38;19.50;99.90
10149;DHT22;5115;50.920;6.376;2023-06-14T04:50:04;19.70;99.90
10149;DHT22;5115;50.920;6.376;2023-06-14T04:52:30;19.90;99.50
10149;DHT22;5115;50.920;6.376;2023-06-14T04:54:57;20.20;99.50
10149;DHT22;5115;50.920;6.376;2023-06-14T04:57:23;20.40;99.00
10149;DHT22;5115;50.920;6.376;2023-06-14T04:59:50;20.60;98.80
10149;DHT22;5115;50.920;6.376;2023-06-14T05:02:21;20.70;97.80
10149;DHT22;5115;50.920;6.376;2023-06-14T05:04:47;20.80;97.90
10149;DHT22;5115;50.920;6.376;2023-06-14T05:07:13;20.90;98.20
10149;DHT22;5115;50.920;6.376;2023-06-14T05:09:39;21.20;97.80
10149;DHT22;5115;50.920;6.376;2023-06-14T05:12:05;21.50;97.50
10149;DHT22;5115;50.920;6.376;2023-06-14T05:14:33;21.70;97.40
10149;DHT22;5115;50.920;6.376;2023-06-14T05:17:00;21.90;97.10
10149;DHT22;5115;50.920;6.376;2023-06-14T05:19:25;22.10;96.60
10149;DHT22;5115;50.920;6.376;2023-06-14T05:21:52;22.40;96.80
10149;DHT22;5115;50.920;6.376;2023-06-14T05:24:17;22.60;96.10
10149;DHT22;5115;50.920;6.376;2023-06-14T05:26:43;22.90;95.50
10149;DHT22;5115;50.920;6.376;2023-06-14T05:29:09;23.20;95.00
10149;DHT22;5115;50.920;6.376;2023-06-14T05:31:34;23.50;94.30
10149;DHT22;5115;50.920;6.376;2023-06-14T05:34:00;23.60;93.70
10149;DHT22;5115;50.920;6.376;2023-06-14T05:36:25;23.80;93.50
10149;DHT22;5115;50.920;6.376;2023-06-14T05:38:53;23.60;93.10
10149;DHT22;5115;50.920;6.376;2023-06-14T05:41:28;23.50;92.10
10149;DHT22;5115;50.920;6.376;2023-06-14T05:43:55;23.70;92.60
10149;DHT22;5115;50.920;6.376;2023-06-14T05:46:20;23.80;92.60
10149;DHT22;5115;50.920;6.376;2023-06-14T05:48:50;24.00;92.70
10149;DHT22;5115;50.920;6.376;2023-06-14T05:51:15;24.00;91.90
10149;DHT22;5115;50.920;6.376;2023-06-14T05:53:47;24.40;91.70
10149;DHT22;5115;50.920;6.376;2023-06-14T05:56:14;24.40;91.50
10149;DHT22;5115;50.920;6.376;2023-06-14T05:58:40;24.40;91.70
10149;DHT22;5115;50.920;6.376;2023-06-14T06:01:06;24.10;90.90
10149;DHT22;5115;50.920;6.376;2023-06-14T06:03:31;23.40;91.00
10149;DHT22;5115;50.920;6.376;2023-06-14T06:05:58;23.50;90.20
10149;DHT22;5115;50.920;6.376;2023-06-14T06:08:23;23.30;90.00
10149;DHT22;5115;50.920;6.376;2023-06-14T06:10:52;23.40;90.50
10149;DHT22;5115;50.920;6.376;2023-06-14T06:13:17;23.30;90.80
10149;DHT22;5115;50.920;6.376;2023-06-14T06:15:43;23.50;90.60
10149;DHT22;5115;50.920;6.376;2023-06-14T06:18:09;23.70;90.30
10149;DHT22;5115;50.920;6.376;2023-06-14T06:20:34;23.90;90.00
10149;DHT22;5115;50.920;6.376;2023-06-14T06:23:01;24.10;90.10
10149;DHT22;5115;50.920;6.376;2023-06-14T06:25:27;23.90;88.60
10149;DHT22;5115;50.920;6.376;2023-06-14T06:27:54;24.00;87.50
10149;DHT22;5115;50.920;6.376;2023-06-14T06:30:21;23.90;88.90
10149;DHT22;5115;50.920;6.376;2023-06-14T06:32:46;23.90;88.50
10149;DHT22;5115;50.920;6.376;2023-06-14T06:35:12;24.00;88.40
10149;DHT22;5115;50.920;6.376;2023-06-14T06:37:39;23.80;88.50
10149;DHT22;5115;50.920;6.376;2023-06-14T06:40:05;24.30;89.80
10149;DHT22;5115;50.920;6.376;2023-06-14T06:42:31;24.30;88.10
10149;DHT22;5115;50.920;6.376;2023-06-14T06:44:57;24.70;87.70
10149;DHT22;5115;50.920;6.376;2023-06-14T06:47:23;24.50;87.20
10149;DHT22;5115;50.920;6.376;2023-06-14T06:49:49;24.60;88.20
10149;DHT22;5115;50.920;6.376;2023-06-14T06:52:14;24.70;87.10
10149;DHT22;5115;50.920;6.376;2023-06-14T06:54:40;25.20;88.30
10149;DHT22;5115;50.920;6.376;2023-06-14T06:57:06;25.10;85.50
10149;DHT22;5115;50.920;6.376;2023-06-14T06:59:33;25.50;85.50
10149;DHT22;5115;50.920;6.376;2023-06-14T07:01:58;25.00;85.70
10149;DHT22;5115;50.920;6.376;2023-06-14T07:04:24;25.10;86.50
10149;DHT22;5115;50.920;6.376;2023-06-14T07:06:49;24.60;85.40
10149;DHT22;5115;50.920;6.376;2023-06-14T07:09:16;24.50;87.10
10149;DHT22;5115;50.920;6.376;2023-06-14T07:11:43;24.90;86.00
10149;DHT22;5115;50.920;6.376;2023-06-14T07:14:08;25.20;87.00
10149;DHT22;5115;50.920;6.376;2023-06-14T07:16:34;25.40;86.20
10149;DHT22;5115;50.920;6.376;2023-06-14T07:19:02;25.40;84.60
10149;DHT22;5115;50.920;6.376;2023-06-14T07:21:27;25.30;84.30
10149;DHT22;5115;50.920;6.376;2023-06-14T07:23:53;25.40;84.80
10149;DHT22;5115;50.920;6.376;2023-06-14T07:26:19;25.40;85.40
10149;DHT22;5115;50.920;6.376;2023-06-14T07:28:46;25.20;86.30
10149;DHT22;5115;50.920;6.376;2023-06-14T07:31:12;25.50;86.10
10149;DHT22;5115;50.920;6.376;2023-06-14T07:33:38;25.20;84.80
10149;DHT22;5115;50.920;6.376;2023-06-14T07:36:04;25.00;85.70
10149;DHT22;5115;50.920;6.376;2023-06-14T07:38:29;25.40;85.50
10149;DHT22;5115;50.920;6.376;2023-06-14T07:40:55;25.20;86.30
10149;DHT22;5115;50.920;6.376;2023-06-14T07:43:20;25.10;85.00
10149;DHT22;5115;50.920;6.376;2023-06-14T07:45:46;24.90;85.00
10149;DHT22;5115;50.920;6.376;2023-06-14T07:48:11;25.40;84.80
10149;DHT22;5115;50.920;6.376;2023-06-14T07:50:37;25.50;85.50
10149;DHT22;5115;50.920;6.376;2023-06-14T07:53:03;25.60;83.10
10149;DHT22;5115;50.920;6.376;2023-06-14T07:55:28;26.00;85.00
10149;DHT22;5115;50.920;6.376;2023-06-14T07:57:54;26.20;82.60
10149;DHT22;5115;50.920;6.376;2023-06-14T08:00:20;26.30;82.30
10149;DHT22;5115;50.920;6.376;2023-06-14T08:02:46;26.10;83.50
10149;DHT22;5115;50.920;6.376;2023-06-14T08:05:11;26.40;83.00
10149;DHT22;5115;50.920;6.376;2023-06-14T08:07:38;26.80;85.40
10149;DHT22;5115;50.920;6.376;2023-06-14T08:10:04;26.80;81.10
10149;DHT22;5115;50.920;6.376;2023-06-14T08:12:31;26.90;82.40
10149;DHT22;5115;50.920;6.376;2023-06-14T08:14:56;26.40;82.20
10149;DHT22;5115;50.920;6.376;2023-06-14T08:17:23;26.80;82.60
10149;DHT22;5115;50.920;6.376;2023-06-14T08:19:48;27.60;81.80
10149;DHT22;5115;50.920;6.376;2023-06-14T08:22:14;27.70;81.50
10149;DHT22;5115;50.920;6.376;2023-06-14T08:24:40;28.10;82.40
10149;DHT22;5115;50.920;6.376;2023-06-14T08:27:06;28.50;80.40
10149;DHT22;5115;50.920;6.376;2023-06-14T08:29:32;28.80;80.60
10149;DHT22;5115;50.920;6.376;2023-06-14T08:31:58;28.70;78.50
10149;DHT22;5115;50.920;6.376;2023-06-14T08:34:23;28.60;79.00
10149;DHT22;5115;50.920;6.376;2023-06-14T08:36:52;29.20;80.10
10149;DHT22;5115;50.920;6.376;2023-06-14T08:39:18;29.40;78.70
10149;DHT22;5115;50.920;6.376;2023-06-14T08:41:46;29.50;75.90
10149;DHT22;5115;50.920;6.376;2023-06-14T08:44:15;29.10;75.90
10149;DHT22;5115;50.920;6.376;2023-06-14T08:46:41;29.20;77.80
10149;DHT22;5115;50.920;6.376;2023-06-14T08:49:08;28.60;76.80
10149;DHT22;5115;50.920;6.376;2023-06-14T08:51:36;28.50;78.50
10149;DHT22;5115;50.920;6.376;2023-06-14T08:54:03;28.80;77.00
10149;DHT22;5115;50.920;6.376;2023-06-14T08:56:30;29.00;76.80
10149;DHT22;5115;50.920;6.376;2023-06-14T08:58:58;29.10;76.70
10149;DHT22;5115;50.920;6.376;2023-06-14T09:01:26;29.10;77.00
10149;DHT22;5115;50.920;6.376;2023-06-14T09:03:52;28.50;76.10
10149;DHT22;5115;50.920;6.376;2023-06-14T09:06:21;28.30;76.00
10149;DHT22;5115;50.920;6.376;2023-06-14T09:08:48;28.40;77.30
10149;DHT22;5115;50.920;6.376;2023-06-14T09:11:17;28.10;77.30
10149;DHT22;5115;50.920;6.376;2023-06-14T09:13:45;28.50;79.20
10149;DHT22;5115;50.920;6.376;2023-06-14T09:16:11;29.00;77.40
10149;DHT22;5115;50.920;6.376;2023-06-14T09:18:40;29.60;78.00
10149;DHT22;5115;50.920;6.376;2023-06-14T09:21:10;29.80;75.20
10149;DHT22;5115;50.920;6.376;2023-06-14T09:23:40;29.40;77.10
10149;DHT22;5115;50.920;6.376;2023-06-14T09:26:09;29.60;77.10
10149;DHT22;5115;50.920;6.376;2023-06-14T09:28:35;29.70;78.70
10149;DHT22;5115;50.920;6.376;2023-06-14T09:31:01;30.20;78.00
10149;DHT22;5115;50.920;6.376;2023-06-14T09:33:27;30.10;74.20
10149;DHT22;5115;50.920;6.376;2023-06-14T09:35:54;29.90;74.50
10149;DHT22;5115;50.920;6.376;2023-06-14T09:38:20;30.00;74.90
10149;DHT22;5115;50.920;6.376;2023-06-14T09:40:46;29.80;71.30
10149;DHT22;5115;50.920;6.376;2023-06-14T09:43:11;29.70;71.70
10149;DHT22;5115;50.920;6.376;2023-06-14T09:45:38;29.80;73.20
10149;DHT22;5115;50.920;6.376;2023-06-14T09:48:06;29.20;73.20
10149;DHT22;5115;50.920;6.376;2023-06-14T09:50:32;29.50;72.60
10149;DHT22;5115;50.920;6.376;2023-06-14T09:53:05;30.00;71.90
10149;DHT22;5115;50.920;6.376;2023-06-14T09:55:35;30.00;68.30
10149;DHT22;5115;50.920;6.376;2023-06-14T09:58:04;30.30;67.60
10149;DHT22;5115;50.920;6.376;2023-06-14T10:00:32;30.10;66.30
10149;DHT22;5115;50.920;6.376;2023-06-14T10:03:16;29.50;67.30
10149;DHT22;5115;50.920;6.376;2023-06-14T10:05:48;29.80;69.00
10149;DHT22;5115;50.920;6.376;2023-06-14T10:08:19;30.00;67.20
10149;DHT22;5115;50.920;6.376;2023-06-14T10:10:48;30.00;67.30
10149;DHT22;5115;50.920;6.376;2023-06-14T10:13:14;29.60;66.20
10149;DHT22;5115;50.920;6.376;2023-06-14T10:15:52;29.60;68.10
10149;DHT22;5115;50.920;6.376;2023-06-14T10:18:50;30.10;69.00
10149;DHT22;5115;50.920;6.376;2023-06-14T10:22:30;30.60;69.70
10149;DHT22;5115;50.920;6.376;2023-06-14T10:24:42;30.80;69.10
10149;DHT22;5115;50.920;6.376;2023-06-14T10:27:09;30.70;68.10
10149;DHT22;5115;50.920;6.376;2023-06-14T10:32:18;30.50;69.30
10149;DHT22;5115;50.920;6.376;2023-06-14T10:34:44;30.00;70.10
10149;DHT22;5115;50.920;6.376;2023-06-14T10:37:13;30.00;70.00
10149;DHT22;5115;50.920;6.376;2023-06-14T10:39:43;29.90;69.00
10149;DHT22;5115;50.920;6.376;2023-06-14T10:42:11;29.80;70.40
10149;DHT22;5115;50.920;6.376;2023-06-14T10:44:51;29.90;70.90
10149;DHT22;5115;50.920;6.376;2023-06-14T10:52:22;29.00;71.00
10149;DHT22;5115;50.920;6.376;2023-06-14T10:55:07;29.20;70.80
10149;DHT22;5115;50.920;6.376;2023-06-14T10:57:42;29.20;71.50
10149;DHT22;5115;50.920;6.376;2023-06-14T11:00:09;29.70;70.80
10149;DHT22;5115;50.920;6.376;2023-06-14T11:11:22;30.00;69.50
10149;DHT22;5115;50.920;6.376;2023-06-14T11:13:51;29.60;70.10
10149;DHT22;5115;50.920;6.376;2023-06-14T11:16:19;29.50;73.00
10149;DHT22;5115;50.920;6.376;2023-06-14T11:18:45;29.70;73.90
10149;DHT22;5115;50.920;6.376;2023-06-14T11:21:11;29.00;74.80
10149;DHT22;5115;50.920;6.376;2023-06-14T11:23:36;29.10;75.40
10149;DHT22;5115;50.920;6.376;2023-06-14T11:26:03;29.00;75.70
10149;DHT22;5115;50.920;6.376;2023-06-14T11:28:39;29.30;76.10
10149;DHT22;5115;50.920;6.376;2023-06-14T11:31:05;28.80;74.80
10149;DHT22;5115;50.920;6.376;2023-06-14T11:33:31;28.50;74.40
10149;DHT22;5115;50.920;6.376;2023-06-14T11:35:57;28.60;75.70
10149;DHT22;5115;50.920;6.376;2023-06-14T11:38:23;28.20;75.00
10149;DHT22;5115;50.920;6.376;2023-06-14T11:40:48;27.80;75.50
10149;DHT22;5115;50.920;6.376;2023-06-14T11:43:14;28.20;77.10
10149;DHT22;5115;50.920;6.376;2023-06-14T11:45:40;28.50;76.10
10149;DHT22;5115;50.920;6.376;2023-06-14T11:48:06;28.40;76.20
10149;DHT22;5115;50.920;6.376;2023-06-14T11:50:32;28.40;74.70
10149;DHT22;5115;50.920;6.376;2023-06-14T11:53:01;28.50;75.50
10149;DHT22;5115;50.920;6.376;2023-06-14T11:55:35;28.80;76.70
10149;DHT22;5115;50.920;6.376;2023-06-14T11:58:01;28.60;74.00
10149;DHT22;5115;50.920;6.376;2023-06-14T12:00:28;28.40;74.90
10149;DHT22;5115;50.920;6.376;2023-06-14T12:02:55;28.40;74.50
10149;DHT22;5115;50.920;6.376;2023-06-14T12:05:22;28.60;73.20
10149;DHT22;5115;50.920;6.376;2023-06-14T12:07:47;28.80;74.10
10149;DHT22;5115;50.920;6.376;2023-06-14T12:10:14;28.80;73.90
10149;DHT22;5115;50.920;6.376;2023-06-14T12:12:40;28.50;74.10
10149;DHT22;5115;50.920;6.376;2023-06-14T12:15:08;28.30;74.50
10149;DHT22;5115;50.920;6.376;2023-06-14T12:17:35;28.30;73.20
10149;DHT22;5115;50.920;6.376;2023-06-14T12:20:06;28.20;73.20
10149;DHT22;5115;50.920;6.376;2023-06-14T12:22:37;28.40;74.50
10149;DHT22;5115;50.920;6.376;2023-06-14T12:25:04;28.20;74.00
10149;DHT22;5115;50.920;6.376;2023-06-14T12:27:30;28.10;74.00
10149;DHT22;5115;50.920;6.376;2023-06-14T12:30:04;28.10;73.60
10149;DHT22;5115;50.920;6.376;2023-06-14T12:32:33;28.30;75.10
10149;DHT22;5115;50.920;6.376;2023-06-14T12:34:58;28.20;75.20
10149;DHT22;5115;50.920;6.376;2023-06-14T12:37:24;28.00;74.20
10149;DHT22;5115;50.920;6.376;2023-06-14T12:39:50;27.60;73.30
10149;DHT22;5115;50.920;6.376;2023-06-14T12:42:16;27.20;73.90
10149;DHT22;5115;50.920;6.376;2023-06-14T12:44:41;27.20;75.50
10149;DHT22;5115;50.920;6.376;2023-06-14T12:47:08;27.00;76.60
10149;DHT22;5115;50.920;6.376;2023-06-14T12:49:34;26.80;77.20
10149;DHT22;5115;50.920;6.376;2023-06-14T12:52:00;26.80;76.50
10149;DHT22;5115;50.920;6.376;2023-06-14T12:54:25;26.70;77.20
10149;DHT22;5115;50.920;6.376;2023-06-14T12:56:51;26.70;77.80
10149;DHT22;5115;50.920;6.376;2023-06-14T12:59:18;26.70;77.70
10149;DHT22;5115;50.920;6.376;2023-06-14T13:01:44;26.70;78.50
10149;DHT22;5115;50.920;6.376;2023-06-14T13:04:11;26.40;79.80
10149;DHT22;5115;50.920;6.376;2023-06-14T13:06:37;26.20;79.80
10149;DHT22;5115;50.920;6.376;2023-06-14T13:09:03;26.40;80.10
10149;DHT22;5115;50.920;6.376;2023-06-14T13:11:29;26.50;81.50
10149;DHT22;5115;50.920;6.376;2023-06-14T13:13:55;26.50;81.30
10149;DHT22;5115;50.920;6.376;2023-06-14T13:16:21;26.60;81.30
10149;DHT22;5115;50.920;6.376;2023-06-14T13:18:47;26.70;81.20
10149;DHT22;5115;50.920;6.376;2023-06-14T13:21:12;26.60;80.10
10149;DHT22;5115;50.920;6.376;2023-06-14T13:23:38;26.70;81.00
10149;DHT22;5115;50.920;6.376;2023-06-14T13:26:03;26.80;81.50
10149;DHT22;5115;50.920;6.376;2023-06-14T13:28:29;26.80;80.20
10149;DHT22;5115;50.920;6.376;2023-06-14T13:30:58;26.70;80.20
10149;DHT22;5115;50.920;6.376;2023-06-14T13:33:23;26.70;81.60
10149;DHT22;5115;50.920;6.376;2023-06-14T13:35:49;26.70;80.40
10149;DHT22;5115;50.920;6.376;2023-06-14T13:38:17;26.70;80.50
10149;DHT22;5115;50.920;6.376;2023-06-14T13:40:42;26.70;81.20
10149;DHT22;5115;50.920;6.376;2023-06-14T13:43:08;26.70;80.70
10149;DHT22;5115;50.920;6.376;2023-06-14T13:45:33;26.70;81.10
10149;DHT22;5115;50.920;6.376;2023-06-14T13:48:00;26.70;82.10
10149;DHT22;5115;50.920;6.376;2023-06-14T13:50:26;26.80;81.40
10149;DHT22;5115;50.920;6.376;2023-06-14T13:52:51;27.00;81.60
10149;DHT22;5115;50.920;6.376;2023-06-14T13:55:17;27.00;80.00
10149;DHT22;5115;50.920;6.376;2023-06-14T13:57:42;26.90;80.40
10149;DHT22;5115;50.920;6.376;2023-06-14T14:00:09;26.90;81.60
10149;DHT22;5115;50.920;6.376;2023-06-14T14:02:35;26.90;81.80
10149;DHT22;5115;50.920;6.376;2023-06-14T14:05:00;27.00;81.50
10149;DHT22;5115;50.920;6.376;2023-06-14T14:07:26;26.90;81.40
10149;DHT22;5115;50.920;6.376;2023-06-14T14:09:51;26.90;80.20
10149;DHT22;5115;50.920;6.376;2023-06-14T14:12:18;26.80;80.00
10149;DHT22;5115;50.920;6.376;2023-06-14T14:14:45;26.80;79.70
10149;DHT22;5115;50.920;6.376;2023-06-14T14:17:11;27.10;81.50
10149;DHT22;5115;50.920;6.376;2023-06-14T14:19:37;26.80;80.20
10149;DHT22;5115;50.920;6.376;2023-06-14T14:22:03;26.60;80.10
10149;DHT22;5115;50.920;6.376;2023-06-14T14:24:28;26.50;78.90
10149;DHT22;5115;50.920;6.376;2023-06-14T14:26:54;26.60;78.60
10149;DHT22;5115;50.920;6.376;2023-06-14T14:29:21;26.70;80.80
10149;DHT22;5115;50.920;6.376;2023-06-14T14:31:47;26.70;80.10
10149;DHT22;5115;50.920;6.376;2023-06-14T14:34:12;26.90;80.70
10149;DHT22;5115;50.920;6.376;2023-06-14T14:36:38;26.70;78.90
10149;DHT22;5115;50.920;6.376;2023-06-14T14:39:08;26.60;79.10
10149;DHT22;5115;50.920;6.376;2023-06-14T14:41:33;26.60;77.30
10149;DHT22;5115;50.920;6.376;2023-06-14T14:43:59;26.70;77.80
10149;DHT22;5115;50.920;6.376;2023-06-14T14:46:26;26.80;77.30
10149;DHT22;5115;50.920;6.376;2023-06-14T14:48:52;26.80;77.70
10149;DHT22;5115;50.920;6.376;2023-06-14T14:51:18;26.80;76.80
10149;DHT22;5115;50.920;6.376;2023-06-14T14:53:43;26.90;76.70
10149;DHT22;5115;50.920;6.376;2023-06-14T14:56:09;26.90;76.50
10149;DHT22;5115;50.920;6.376;2023-06-14T14:58:35;26.90;77.10
10149;DHT22;5115;50.920;6.376;2023-06-14T15:01:00;27.00;78.30
10149;DHT22;5115;50.920;6.376;2023-06-14T15:03:26;27.10;76.50
10149;DHT22;5115;50.920;6.376;2023-06-14T15:05:51;27.20;77.00
10149;DHT22;5115;50.920;6.376;2023-06-14T15:08:17;27.30;77.20
10149;DHT22;5115;50.920;6.376;2023-06-14T15:10:42;27.10;76.50
10149;DHT22;5115;50.920;6.376;2023-06-14T15:13:08;26.80;77.90
10149;DHT22;5115;50.920;6.376;2023-06-14T15:15:35;26.70;78.70
10149;DHT22;5115;50.920;6.376;2023-06-14T15:18:01;26.50;78.00
10149;DHT22;5115;50.920;6.376;2023-06-14T15:20:26;26.40;78.90
10149;DHT22;5115;50.920;6.376;2023-06-14T15:22:53;26.30;79.30
10149;DHT22;5115;50.920;6.376;2023-06-14T15:25:19;26.40;78.70
10149;DHT22;5115;50.920;6.376;2023-06-14T15:27:46;26.50;78.10
10149;DHT22;5115;50.920;6.376;2023-06-14T15:30:12;26.60;78.90
10149;DHT22;5115;50.920;6.376;2023-06-14T15:32:38;26.60;78.70
10149;DHT22;5115;50.920;6.376;2023-06-14T15:35:03;26.80;78.80
10149;DHT22;5115;50.920;6.376;2023-06-14T15:37:29;26.80;77.40
10149;DHT22;5115;50.920;6.376;2023-06-14T15:39:55;26.70;78.90
10149;DHT22;5115;50.920;6.376;2023-06-14T15:42:20;26.50;78.20
10149;DHT22;5115;50.920;6.376;2023-06-14T15:44:46;26.50;79.80
10149;DHT22;5115;50.920;6.376;2023-06-14T15:47:13;26.40;79.40
10149;DHT22;5115;50.920;6.376;2023-06-14T15:49:38;26.40;79.10
10149;DHT22;5115;50.920;6.376;2023-06-14T15:52:04;26.40;79.20
10149;DHT22;5115;50.920;6.376;2023-06-14T15:54:31;26.30;79.50
10149;DHT22;5115;50.920;6.376;2023-06-14T15:56:56;26.20;78.30
10149;DHT22;5115;50.920;6.376;2023-06-14T15:59:23;26.30;79.00
10149;DHT22;5115;50.920;6.376;2023-06-14T16:01:49;26.30;77.30